Time;durP1;ratioP1;P1;durP2;ratioP2;P2;SDS_P1;SDS_P2;PMS_P1;PMS_P2;Temp;Humidity;BMP_temperature;BMP_pressure;BME280_temperature;BME280_humidity;BME280_pressure;Samples;Min_cycle;Max_cycle;Signal;HPM_P1;HPM_P2
2023/05/05 00:23:10;;;;;;;25.57;13.63;;;7.60;99.90;;;;;;4736098;29;20219;-83
2023/05/05 00:44:06;;;;;;;21.53;12.73;;;7.30;99.90;;;;;;4616353;30;20256;-84
2023/05/05 01:09:09;;;;;;;18.10;10.80;;;7.40;99.90;;;;;;4553263;30;20369;-86
2023/05/05 01:44:51;;;;;;;16.87;10.77;;;8.00;99.90;;;;;;4753563;29;20700;-85
2023/05/05 02:19:51;;;;;;;20.17;12.03;;;7.50;99.90;;;;;;4563154;30;20638;-84
2023/05/05 03:05:24;;;;;;;19.03;12.57;;;7.90;99.90;;;;;;4663176;29;20563;-85
2023/05/05 03:36:32;;;;;;;12.77;10.70;;;8.10;99.90;;;;;;4735941;29;20292;-86
2023/05/05 04:01:47;;;;;;;15.57;10.53;;;8.60;99.90;;;;;;4578995;30;20783;-87
2023/05/05 04:21:46;;;;;;;16.17;10.37;;;9.10;97.30;;;;;;4496051;30;20628;-86
2023/05/05 04:47:31;;;;;;;17.50;10.17;;;9.80;89.80;;;;;;4479358;30;20307;-86
2023/05/05 05:48:12;;;;;;;13.47;7.60;;;11.20;76.40;;;;;;4944257;27;20372;-84
2023/05/05 06:08:08;;;;;;;9.00;6.00;;;12.60;69.20;;;;;;4718019;28;20429;-81
2023/05/05 06:43:52;;;;;;;13.17;5.30;;;14.30;51.80;;;;;;4717160;29;20258;-81
2023/05/05 07:09:26;;;;;;;5.53;4.47;;;15.00;47.50;;;;;;4632719;29;20205;-83
2023/05/05 07:50:01;;;;;;;6.07;4.20;;;15.70;46.60;;;;;;4908417;28;21090;-81
2023/05/05 07:54:21;;;;;;;6.53;3.93;;;15.80;45.50;;;;;;4816207;28;20620;-82
2023/05/05 08:15:21;;;;;;;4.90;4.17;;;15.90;45.10;;;;;;4755339;28;20287;-83
2023/05/05 08:40:38;;;;;;;7.93;4.33;;;16.10;46.00;;;;;;4749971;28;20425;-84
2023/05/05 09:56:41;;;;;;;4.43;3.50;;;16.90;45.40;;;;;;4759385;28;20265;-81
2023/05/05 10:36:38;;;;;;;3.80;3.20;;;16.30;48.60;;;;;;4669800;28;20774;-81
2023/05/05 10:52:23;;;;;;;6.47;2.80;;;16.10;48.80;;;;;;4532413;30;20243;-86
2023/05/05 11:22:15;;;;;;;4.07;2.93;;;17.00;48.60;;;;;;4373448;30;20846;-79
2023/05/05 12:18:08;;;;;;;6.70;2.90;;;16.10;52.50;;;;;;4417504;30;21229;-79
2023/05/05 13:08:44;;;;;;;5.30;2.90;;;16.20;51.70;;;;;;4368115;30;20692;-84
2023/05/05 13:34:41;;;;;;;3.30;2.63;;;16.60;52.50;;;;;;4540279;29;20254;-81
2023/05/05 14:40:35;;;;;;;3.03;2.37;;;16.60;49.70;;;;;;4601028;29;20244;-83
2023/05/05 15:10:50;;;;;;;4.57;2.30;;;16.90;47.20;;;;;;4655009;29;20677;-83
2023/05/05 15:41:29;;;;;;;3.20;2.53;;;16.20;46.80;;;;;;4605257;30;20212;-87
2023/05/05 15:45:48;;;;;;;5.27;2.30;;;15.40;48.00;;;;;;4629859;29;20559;-83
2023/05/05 16:06:43;;;;;;;2.43;2.00;;;14.20;47.60;;;;;;4733156;29;20241;-83
2023/05/05 16:32:07;;;;;;;3.37;2.20;;;13.70;49.90;;;;;;4680220;29;20236;-82
2023/05/05 16:52:13;;;;;;;2.70;2.23;;;13.20;60.70;;;;;;4560467;30;20256;-83
2023/05/05 17:48:01;;;;;;;6.53;3.40;;;12.10;75.00;;;;;;4587360;30;20570;-85
2023/05/05 18:28:41;;;;;;;3.93;3.13;;;11.20;80.80;;;;;;4878021;28;20314;-85
2023/05/05 18:49:03;;;;;;;4.67;3.43;;;10.90;82.50;;;;;;4886786;28;20293;-85
2023/05/05 19:09:13;;;;;;;6.10;4.20;;;10.80;83.20;;;;;;4735437;29;20295;-85
2023/05/05 19:29:07;;;;;;;5.33;4.43;;;10.50;84.30;;;;;;4680184;29;20730;-85
2023/05/05 20:00:01;;;;;;;5.77;4.17;;;10.40;86.20;;;;;;4789638;29;20682;-81
2023/05/05 20:24:42;;;;;;;9.87;5.53;;;10.20;87.20;;;;;;4768634;29;20876;-86
2023/05/05 20:50:28;;;;;;;11.37;5.83;;;9.90;88.80;;;;;;4743211;29;20204;-84
2023/05/05 21:10:24;;;;;;;8.73;5.90;;;9.80;89.10;;;;;;4652921;29;20673;-84
2023/05/05 21:51:25;;;;;;;8.30;6.03;;;9.60;90.30;;;;;;4644383;30;21078;-83
2023/05/05 22:21:16;;;;;;;9.27;6.37;;;9.30;91.30;;;;;;4668757;29;20259;-83
2023/05/05 22:46:37;;;;;;;9.60;6.30;;;9.00;92.10;;;;;;4686215;29;20632;-81
2023/05/05 23:02:20;;;;;;;7.67;6.43;;;8.50;95.10;;;;;;4663861;29;20211;-82
2023/05/05 23:27:35;;;;;;;9.07;6.43;;;8.20;97.40;;;;;;4595029;30;20350;-85
2023/05/05 23:53:06;;;;;;;7.47;5.13;;;7.90;98.80;;;;;;4626159;30;20337;-81
